createdAt,value
2022-10-05T00:01:49.250Z,4.21
2022-10-05T00:04:19.115Z,4.26
2022-10-05T00:06:49.242Z,4.40
2022-10-05T00:09:19.052Z,4.53
2022-10-05T00:11:47.208Z,4.49
2022-10-05T00:14:17.894Z,4.43
2022-10-05T00:16:46.227Z,4.17
2022-10-05T00:19:22.390Z,4.22
2022-10-05T00:21:50.448Z,4.23
2022-10-05T00:24:20.826Z,4.21
2022-10-05T00:26:54.209Z,4.17
2022-10-05T00:29:25.613Z,4.04
2022-10-05T00:31:53.594Z,4.27
2022-10-05T00:34:22.967Z,4.19
2022-10-05T00:36:50.878Z,4.02
2022-10-05T00:39:19.332Z,4.08
2022-10-05T00:41:59.636Z,4.20
2022-10-05T00:44:36.398Z,4.09
2022-10-05T00:47:12.215Z,4.23
2022-10-05T00:49:55.310Z,4.14
2022-10-05T00:52:27.783Z,4.08
2022-10-05T00:55:03.618Z,3.96
2022-10-05T00:57:39.172Z,3.92
2022-10-05T01:00:09.672Z,3.98
2022-10-05T01:02:47.706Z,3.85
2022-10-05T01:05:21.965Z,3.88
2022-10-05T01:07:54.626Z,3.53
2022-10-05T01:10:28.615Z,3.74
2022-10-05T01:13:04.573Z,3.73
2022-10-05T01:15:36.100Z,3.17
2022-10-05T01:18:07.155Z,3.65
2022-10-05T01:20:47.501Z,3.56
2022-10-05T01:23:49.181Z,3.42
2022-10-05T01:26:39.305Z,3.54
2022-10-05T01:29:12.389Z,3.73
2022-10-05T01:31:45.543Z,3.61
2022-10-05T01:34:18.329Z,3.69
2022-10-05T01:36:52.998Z,3.60
2022-10-05T01:39:28.435Z,3.80
2022-10-05T01:42:04.913Z,3.74
2022-10-05T01:44:37.781Z,3.71
2022-10-05T01:47:10.819Z,3.67
2022-10-05T01:49:39.733Z,3.61
2022-10-05T01:52:21.030Z,3.76
2022-10-05T01:54:58.126Z,3.70
2022-10-05T01:57:36.249Z,3.74
2022-10-05T02:00:09.485Z,3.69
2022-10-05T02:02:39.690Z,3.61
2022-10-05T02:05:12.286Z,3.86
2022-10-05T02:07:43.530Z,3.82
2022-10-05T02:10:24.378Z,3.75
2022-10-05T02:12:55.817Z,3.77
2022-10-05T02:15:27.498Z,3.56
2022-10-05T02:17:58.936Z,3.53
2022-10-05T02:20:29.938Z,3.53
2022-10-05T02:23:00.725Z,3.70
2022-10-05T02:25:30.850Z,3.90
2022-10-05T02:28:02.468Z,3.77
2022-10-05T02:30:32.948Z,3.75
2022-10-05T02:33:03.018Z,3.66
2022-10-05T02:35:31.007Z,3.55
2022-10-05T02:38:08.009Z,3.53
2022-10-05T02:40:44.136Z,3.67
2022-10-05T02:43:20.747Z,3.61
2022-10-05T02:45:55.176Z,3.87
2022-10-05T02:48:32.653Z,3.68
2022-10-05T02:51:05.129Z,3.70
2022-10-05T02:53:37.037Z,3.72
2022-10-05T02:56:14.601Z,3.71
2022-10-05T02:58:47.390Z,3.59
2022-10-05T03:01:22.774Z,3.63
2022-10-05T03:03:57.246Z,3.72
2022-10-05T03:06:29.511Z,3.56
2022-10-05T03:09:01.538Z,3.62
2022-10-05T03:11:36.726Z,3.42
2022-10-05T03:14:08.308Z,3.37
2022-10-05T03:16:45.456Z,3.40
2022-10-05T03:19:23.274Z,3.38
2022-10-05T03:21:59.051Z,3.56
2022-10-05T03:24:48.389Z,3.55
2022-10-05T03:27:26.396Z,3.38
2022-10-05T03:29:59.029Z,3.44
2022-10-05T03:32:34.024Z,3.32
2022-10-05T03:35:06.314Z,3.23
2022-10-05T03:37:40.448Z,3.40
2022-10-05T03:40:11.357Z,3.40
2022-10-05T03:42:50.867Z,3.36
2022-10-05T03:45:24.262Z,3.27
2022-10-05T03:48:01.456Z,3.23
2022-10-05T03:50:40.617Z,3.23
2022-10-05T03:53:13.019Z,3.26
2022-10-05T03:55:43.322Z,3.06
2022-10-05T03:58:16.264Z,3.37
2022-10-05T04:00:46.047Z,3.36
2022-10-05T04:03:19.916Z,3.35
2022-10-05T04:05:50.531Z,3.19
2022-10-05T04:08:23.089Z,3.15
2022-10-05T04:10:52.886Z,3.15
2022-10-05T04:13:24.516Z,3.11
2022-10-05T04:15:58.806Z,3.07
2022-10-05T04:18:31.937Z,2.94
2022-10-05T04:21:03.256Z,2.90
2022-10-05T04:23:40.158Z,3.04
2022-10-05T04:26:11.734Z,3.16
2022-10-05T04:28:46.942Z,3.12
2022-10-05T04:31:19.697Z,3.15
2022-10-05T04:33:58.112Z,3.36
2022-10-05T04:36:28.249Z,3.38
2022-10-05T04:39:06.506Z,3.23
2022-10-05T04:41:50.057Z,3.30
2022-10-05T04:44:28.107Z,3.20
2022-10-05T04:47:10.141Z,3.14
2022-10-05T04:49:50.638Z,3.16
2022-10-05T04:52:25.195Z,3.21
2022-10-05T04:55:10.133Z,3.25
2022-10-05T04:57:42.961Z,3.23
2022-10-05T05:00:21.398Z,3.20
2022-10-05T05:03:05.012Z,3.22
2022-10-05T05:06:05.106Z,3.14
2022-10-05T05:08:43.399Z,3.06
2022-10-05T05:11:20.066Z,3.06
2022-10-05T05:14:17.769Z,3.21
2022-10-05T05:16:47.562Z,3.10
2022-10-05T05:19:32.153Z,3.15
2022-10-05T05:22:04.922Z,3.25
2022-10-05T05:24:42.650Z,3.47
2022-10-05T05:27:45.848Z,3.69
2022-10-05T05:30:24.514Z,3.75
2022-10-05T05:33:04.627Z,4.13
2022-10-05T05:36:02.814Z,4.13
2022-10-05T05:38:35.462Z,4.13
2022-10-05T05:41:10.154Z,4.57
2022-10-05T05:43:50.309Z,4.59
2022-10-05T05:46:38.899Z,4.60
2022-10-05T05:49:16.954Z,4.54
2022-10-05T05:51:48.387Z,4.81
2022-10-05T05:54:27.410Z,5.00
2022-10-05T05:57:00.554Z,5.08
2022-10-05T05:59:32.101Z,4.73
2022-10-05T06:02:05.259Z,4.95
2022-10-05T06:04:37.105Z,5.09
2022-10-05T06:07:06.478Z,5.20
2022-10-05T06:09:38.662Z,5.54
2022-10-05T06:12:10.192Z,5.82
2022-10-05T06:14:41.650Z,5.86
2022-10-05T06:17:14.185Z,6.25
2022-10-05T06:19:43.086Z,6.28
2022-10-05T06:22:16.486Z,6.19
2022-10-05T06:24:54.671Z,6.48
2022-10-05T06:27:35.002Z,6.60
2022-10-05T06:30:09.479Z,6.88
2022-10-05T06:32:51.842Z,7.05
2022-10-05T06:35:26.941Z,7.03
2022-10-05T06:38:14.033Z,7.25
2022-10-05T06:40:54.275Z,7.45
2022-10-05T06:43:32.389Z,7.86
2022-10-05T06:46:08.741Z,7.84
2022-10-05T06:48:59.501Z,7.96
2022-10-05T06:51:33.951Z,8.20
2022-10-05T06:54:09.104Z,8.38
2022-10-05T06:56:45.149Z,8.53
2022-10-05T06:59:19.528Z,8.71
2022-10-05T07:01:53.779Z,8.75
2022-10-05T07:04:42.812Z,8.68
2022-10-05T07:07:15.963Z,8.83
2022-10-05T07:09:54.129Z,8.80
2022-10-05T07:12:49.865Z,8.78
2022-10-05T07:15:40.816Z,8.86
2022-10-05T07:18:26.632Z,8.94
2022-10-05T07:21:00.281Z,9.42
2022-10-05T07:23:38.707Z,9.66
2022-10-05T07:26:10.858Z,9.79
2022-10-05T07:28:46.120Z,9.92
2022-10-05T07:31:19.946Z,10.37
2022-10-05T07:33:54.257Z,10.64
2022-10-05T07:36:50.951Z,10.91
2022-10-05T07:39:42.011Z,11.17
2022-10-05T07:42:21.819Z,11.43
2022-10-05T07:44:55.728Z,11.42
2022-10-05T07:47:28.307Z,11.74
2022-10-05T07:50:01.771Z,11.70
2022-10-05T07:52:35.151Z,11.93
2022-10-05T07:55:05.524Z,12.41
2022-10-05T07:57:39.406Z,12.55
2022-10-05T08:00:14.567Z,13.07
2022-10-05T08:02:49.066Z,13.42
2022-10-05T08:05:21.368Z,13.46
2022-10-05T08:07:52.809Z,13.65
2022-10-05T08:10:28.890Z,13.69
2022-10-05T08:13:04.399Z,13.70
2022-10-05T08:15:37.034Z,13.94
2022-10-05T08:18:13.257Z,14.20
2022-10-05T08:20:44.758Z,14.18
2022-10-05T08:23:22.414Z,13.83
2022-10-05T08:25:57.788Z,13.95
2022-10-05T08:28:28.534Z,14.03
2022-10-05T08:31:02.464Z,13.32
2022-10-05T08:33:35.943Z,13.96
2022-10-05T08:36:07.878Z,14.14
2022-10-05T08:38:35.795Z,14.47
2022-10-05T08:41:39.254Z,14.53
2022-10-05T08:44:44.105Z,14.28
2022-10-05T08:47:22.977Z,14.29
2022-10-05T08:50:03.840Z,14.27
2022-10-05T08:52:32.665Z,14.25
2022-10-05T08:55:37.136Z,14.46
2022-10-05T08:58:59.156Z,14.33
2022-10-05T09:01:34.253Z,14.58
2022-10-05T09:04:20.901Z,14.61
2022-10-05T09:07:02.062Z,14.58
2022-10-05T09:09:57.193Z,14.59
2022-10-05T09:13:06.000Z,14.53
2022-10-05T09:16:16.894Z,14.91
2022-10-05T09:19:01.706Z,15.04
2022-10-05T09:21:44.896Z,15.30
2022-10-05T09:24:40.733Z,15.67
2022-10-05T09:27:13.077Z,15.26
2022-10-05T09:30:15.885Z,15.26
2022-10-05T09:33:16.390Z,15.40
2022-10-05T09:36:12.423Z,15.20
2022-10-05T09:39:00.550Z,15.13
2022-10-05T09:41:51.473Z,15.49
2022-10-05T09:44:51.528Z,15.46
2022-10-05T09:47:45.167Z,15.69
2022-10-05T09:51:01.631Z,15.65
2022-10-05T09:53:54.612Z,15.98
2022-10-05T09:56:45.441Z,16.22
2022-10-05T09:59:53.140Z,16.29
2022-10-05T10:02:36.439Z,16.84
2022-10-05T10:05:29.869Z,16.42
2022-10-05T10:08:14.597Z,17.24
2022-10-05T10:11:01.749Z,17.52
2022-10-05T10:14:00.268Z,17.65
2022-10-05T10:16:42.347Z,17.78
2022-10-05T10:19:31.484Z,17.54
2022-10-05T10:22:32.078Z,17.81
2022-10-05T10:25:26.841Z,18.03
2022-10-05T10:28:13.220Z,17.71
2022-10-05T10:31:13.076Z,17.00
2022-10-05T10:34:04.665Z,17.10
2022-10-05T10:36:50.542Z,17.35
2022-10-05T10:39:23.554Z,17.24
2022-10-05T10:42:16.991Z,17.30
2022-10-05T10:45:06.665Z,17.67
2022-10-05T10:47:48.431Z,17.13
2022-10-05T10:51:01.999Z,17.23
2022-10-05T10:54:12.223Z,17.04
2022-10-05T10:56:50.350Z,17.03
2022-10-05T11:00:00.336Z,17.14
2022-10-05T11:02:46.807Z,17.11
2022-10-05T11:05:29.033Z,17.29
2022-10-05T11:08:34.277Z,17.44
2022-10-05T11:11:27.011Z,17.47
2022-10-05T11:14:27.994Z,17.28
2022-10-05T11:17:16.116Z,17.46
2022-10-05T11:20:03.683Z,17.82
2022-10-05T11:23:06.145Z,17.82
2022-10-05T11:25:52.254Z,18.40
2022-10-05T11:28:42.169Z,18.65
2022-10-05T11:31:41.652Z,18.78
2022-10-05T11:34:35.153Z,18.90
2022-10-05T11:37:31.877Z,18.61
2022-10-05T11:40:33.276Z,18.63
2022-10-05T11:43:42.961Z,18.68
2022-10-05T11:46:17.834Z,18.90
2022-10-05T11:49:00.515Z,18.67
2022-10-05T11:51:45.751Z,18.52
2022-10-05T11:54:22.787Z,18.17
2022-10-05T11:56:54.698Z,18.46
2022-10-05T11:59:29.917Z,18.54
2022-10-05T12:02:07.778Z,18.06
2022-10-05T12:04:40.953Z,18.26
2022-10-05T12:07:16.082Z,18.32
2022-10-05T12:10:20.110Z,18.61
2022-10-05T12:13:08.619Z,18.56
2022-10-05T12:15:45.005Z,18.49
2022-10-05T12:18:17.002Z,18.55
2022-10-05T12:20:48.625Z,18.38
2022-10-05T12:23:21.879Z,18.58
2022-10-05T12:25:55.548Z,18.42
2022-10-05T12:28:28.912Z,18.15
2022-10-05T12:31:15.774Z,18.39
2022-10-05T12:33:50.019Z,18.34
2022-10-05T12:36:21.202Z,18.30
2022-10-05T12:38:55.868Z,18.15
2022-10-05T12:41:32.002Z,18.04
2022-10-05T12:44:12.961Z,17.81
2022-10-05T12:46:46.932Z,18.09
2022-10-05T12:49:28.598Z,17.84
2022-10-05T12:51:59.170Z,17.72
2022-10-05T12:54:38.789Z,17.21
2022-10-05T12:57:14.017Z,17.96
2022-10-05T12:59:45.703Z,17.66
2022-10-05T13:02:21.421Z,17.49
2022-10-05T13:04:53.017Z,17.69
2022-10-05T13:07:38.596Z,17.43
2022-10-05T13:10:15.694Z,17.37
2022-10-05T13:12:52.356Z,17.50
2022-10-05T13:15:25.138Z,17.84
2022-10-05T13:18:00.729Z,17.70
2022-10-05T13:20:32.631Z,17.81
2022-10-05T13:23:04.688Z,17.96
2022-10-05T13:25:34.334Z,17.81
2022-10-05T13:28:16.827Z,17.93
2022-10-05T13:30:53.759Z,17.54
2022-10-05T13:33:28.437Z,17.60
2022-10-05T13:36:01.562Z,17.25
2022-10-05T13:38:39.813Z,17.88
2022-10-05T13:41:14.977Z,17.73
2022-10-05T13:43:50.627Z,17.95
2022-10-05T13:46:24.754Z,17.71
2022-10-05T13:49:01.405Z,17.55
2022-10-05T13:51:32.086Z,17.59
2022-10-05T13:54:05.871Z,17.48
2022-10-05T13:56:35.909Z,17.71
2022-10-05T13:59:15.114Z,17.54
2022-10-05T14:01:45.344Z,17.33
2022-10-05T14:04:18.107Z,17.56
2022-10-05T14:06:46.476Z,17.37
2022-10-05T14:09:28.561Z,17.17
2022-10-05T14:12:13.271Z,17.06
2022-10-05T14:14:48.416Z,17.09
2022-10-05T14:17:18.222Z,17.23
2022-10-05T14:19:51.115Z,17.45
2022-10-05T14:22:23.390Z,17.00
2022-10-05T14:24:53.324Z,16.90
2022-10-05T14:27:24.209Z,16.86
2022-10-05T14:30:02.937Z,16.87
2022-10-05T14:32:32.896Z,16.30
2022-10-05T14:35:06.212Z,16.68
2022-10-05T14:37:44.681Z,16.60
2022-10-05T14:40:28.403Z,16.44
2022-10-05T14:42:56.755Z,16.39
2022-10-05T14:45:29.876Z,16.32
2022-10-05T14:48:09.841Z,16.22
2022-10-05T14:50:52.901Z,16.21
2022-10-05T14:53:21.800Z,16.13
2022-10-05T14:56:17.143Z,15.95
2022-10-05T14:59:04.433Z,15.91
2022-10-05T15:01:35.908Z,15.84
2022-10-05T15:04:16.297Z,15.85
2022-10-05T15:06:53.359Z,15.76
2022-10-05T15:09:36.579Z,15.72
2022-10-05T15:12:04.742Z,15.70
2022-10-05T15:14:35.545Z,15.75
2022-10-05T15:17:07.576Z,15.44
2022-10-05T15:19:44.830Z,15.45
2022-10-05T15:22:22.932Z,15.07
2022-10-05T15:24:58.389Z,15.59
2022-10-05T15:27:31.923Z,15.18
2022-10-05T15:30:06.326Z,15.33
2022-10-05T15:32:42.762Z,15.42
2022-10-05T15:35:30.808Z,15.39
2022-10-05T15:38:03.469Z,15.37
2022-10-05T15:40:37.334Z,15.02
2022-10-05T15:43:11.355Z,15.11
2022-10-05T15:45:45.277Z,15.06
2022-10-05T15:48:20.006Z,14.83
2022-10-05T15:50:56.967Z,15.00
2022-10-05T15:53:29.197Z,14.87
2022-10-05T15:56:01.111Z,14.88
2022-10-05T15:58:45.621Z,14.69
2022-10-05T16:01:17.514Z,14.52
2022-10-05T16:03:51.482Z,14.41
2022-10-05T16:06:54.246Z,14.30
2022-10-05T16:09:37.374Z,14.25
2022-10-05T16:12:14.994Z,13.95
2022-10-05T16:14:55.851Z,13.94
2022-10-05T16:17:36.844Z,13.92
2022-10-05T16:20:18.037Z,13.77
2022-10-05T16:22:49.604Z,13.53
2022-10-05T16:25:23.324Z,13.42
2022-10-05T16:28:05.729Z,13.28
2022-10-05T16:30:42.134Z,13.19
2022-10-05T16:33:13.192Z,13.29
2022-10-05T16:35:49.517Z,13.17
2022-10-05T16:38:26.867Z,12.92
2022-10-05T16:41:02.385Z,13.01
2022-10-05T16:43:39.920Z,12.87
2022-10-05T16:46:13.792Z,12.81
2022-10-05T16:48:49.038Z,12.59
2022-10-05T16:51:29.822Z,12.31
2022-10-05T16:54:03.429Z,12.44
2022-10-05T16:56:37.897Z,12.58
2022-10-05T16:59:24.006Z,12.59
2022-10-05T17:02:00.821Z,12.38
2022-10-05T17:04:39.103Z,12.40
2022-10-05T17:07:30.015Z,12.31
2022-10-05T17:10:24.401Z,12.12
2022-10-05T17:13:02.058Z,12.32
2022-10-05T17:15:37.269Z,11.95
2022-10-05T17:18:23.835Z,12.18
2022-10-05T17:20:56.884Z,12.02
2022-10-05T17:23:32.501Z,11.86
2022-10-05T17:26:09.361Z,12.00
2022-10-05T17:28:38.932Z,11.83
2022-10-05T17:31:14.171Z,11.88
2022-10-05T17:34:19.467Z,11.88
2022-10-05T17:36:49.567Z,11.83
2022-10-05T17:39:20.524Z,11.81
2022-10-05T17:41:49.127Z,11.70
2022-10-05T17:44:27.920Z,11.61
2022-10-05T17:46:59.913Z,11.45
2022-10-05T17:50:10.908Z,11.62
2022-10-05T17:53:01.285Z,11.56
2022-10-05T17:55:42.929Z,11.61
2022-10-05T17:59:02.970Z,11.70
2022-10-05T18:01:33.948Z,11.25
2022-10-05T18:04:34.470Z,11.45
2022-10-05T18:07:16.997Z,11.67
2022-10-05T18:10:21.556Z,11.60
2022-10-05T18:12:52.267Z,11.45
2022-10-05T18:15:48.693Z,11.41
2022-10-05T18:18:55.868Z,11.35
2022-10-05T18:21:39.123Z,11.16
2022-10-05T18:24:43.205Z,11.16
2022-10-05T18:27:36.654Z,10.97
2022-10-05T18:30:15.026Z,10.97
2022-10-05T18:33:22.082Z,10.75
2022-10-05T18:36:07.397Z,10.75
2022-10-05T18:38:51.276Z,10.75
2022-10-05T18:41:28.632Z,10.74
2022-10-05T18:44:06.396Z,10.71
2022-10-05T18:46:43.753Z,10.08
2022-10-05T18:49:24.816Z,10.66
2022-10-05T18:51:57.179Z,10.55
2022-10-05T18:54:44.926Z,10.43
2022-10-05T18:57:46.514Z,10.62
2022-10-05T19:00:16.975Z,10.25
2022-10-05T19:02:49.885Z,9.87
2022-10-05T19:08:20.715Z,10.31
2022-10-05T19:10:51.943Z,10.07
2022-10-05T19:13:34.474Z,10.31
2022-10-05T19:16:12.355Z,10.31
2022-10-05T19:18:52.858Z,9.99
2022-10-05T19:21:26.622Z,10.18
2022-10-05T19:24:15.156Z,10.01
2022-10-05T19:26:56.445Z,10.01
2022-10-05T19:29:38.150Z,9.96
2022-10-05T19:32:10.068Z,9.90
2022-10-05T19:34:50.121Z,9.39
2022-10-05T19:37:21.894Z,9.84
2022-10-05T19:39:54.762Z,9.64
2022-10-05T19:42:53.485Z,9.54
2022-10-05T19:45:24.239Z,9.35
2022-10-05T19:48:02.393Z,9.24
2022-10-05T19:50:33.722Z,9.49
2022-10-05T19:53:04.125Z,9.38
2022-10-05T19:55:37.722Z,9.37
2022-10-05T19:58:18.802Z,9.36
2022-10-05T20:00:54.506Z,9.37
2022-10-05T20:03:27.614Z,9.33
2022-10-05T20:05:58.314Z,9.28
2022-10-05T20:08:27.676Z,9.19
2022-10-05T20:11:07.753Z,9.23
2022-10-05T20:13:35.937Z,9.19
2022-10-05T20:16:26.506Z,9.13
2022-10-05T20:19:12.580Z,8.81
2022-10-05T20:21:47.658Z,8.84
2022-10-05T20:24:17.235Z,8.68
2022-10-05T20:27:05.098Z,8.83
2022-10-05T20:29:36.507Z,8.77
2022-10-05T20:32:08.773Z,8.18
2022-10-05T20:34:38.002Z,8.68
2022-10-05T20:37:07.322Z,8.61
2022-10-05T20:39:35.270Z,8.65
2022-10-05T20:42:03.161Z,8.38
2022-10-05T20:44:31.150Z,8.50
2022-10-05T20:47:01.331Z,8.36
2022-10-05T20:49:31.043Z,8.28
2022-10-05T20:51:59.590Z,8.17
2022-10-05T20:54:28.986Z,8.15
2022-10-05T20:56:57.221Z,7.67
2022-10-05T20:59:26.131Z,8.15
2022-10-05T21:01:54.126Z,7.90
2022-10-05T21:04:23.851Z,7.46
2022-10-05T21:06:52.897Z,7.96
2022-10-05T21:09:21.667Z,7.96
2022-10-05T21:11:52.907Z,7.62
2022-10-05T21:14:20.850Z,7.66
2022-10-05T21:16:48.891Z,7.85
2022-10-05T21:19:17.373Z,7.77
2022-10-05T21:21:46.746Z,7.48
2022-10-05T21:24:15.824Z,7.59
2022-10-05T21:26:44.409Z,7.62
2022-10-05T21:29:14.035Z,7.58
2022-10-05T21:31:42.246Z,7.92
2022-10-05T21:34:10.215Z,7.84
2022-10-05T21:36:38.224Z,7.33
2022-10-05T21:39:06.134Z,7.63
2022-10-05T21:41:34.189Z,7.63
2022-10-05T21:44:02.134Z,7.92
2022-10-05T21:46:31.646Z,7.85
2022-10-05T21:48:59.605Z,7.69
2022-10-05T21:51:27.863Z,6.91
2022-10-05T21:53:58.354Z,6.89
2022-10-05T21:56:29.660Z,7.44
2022-10-05T21:58:57.585Z,7.08
2022-10-05T22:01:25.690Z,7.29
2022-10-05T22:03:55.123Z,7.25
2022-10-05T22:06:23.080Z,7.32
2022-10-05T22:08:51.031Z,7.45
2022-10-05T22:11:19.459Z,7.36
2022-10-05T22:13:49.370Z,7.47
2022-10-05T22:16:18.590Z,6.81
2022-10-05T22:18:46.981Z,7.33
2022-10-05T22:21:16.984Z,7.48
2022-10-05T22:23:46.904Z,7.31
2022-10-05T22:26:17.446Z,7.37
2022-10-05T22:28:46.697Z,7.40
2022-10-05T22:31:15.045Z,7.04
2022-10-05T22:33:43.016Z,7.25
2022-10-05T22:36:11.070Z,7.23
2022-10-05T22:38:40.369Z,7.04
2022-10-05T22:41:11.400Z,7.03
2022-10-05T22:43:39.423Z,6.98
2022-10-05T22:46:10.282Z,6.96
2022-10-05T22:48:38.411Z,6.95
2022-10-05T22:51:06.745Z,6.85
2022-10-05T22:53:34.863Z,6.91
2022-10-05T22:56:08.860Z,6.65
2022-10-05T22:58:37.349Z,7.14
2022-10-05T23:01:06.660Z,7.19
2022-10-05T23:03:34.927Z,7.05
2022-10-05T23:06:04.749Z,6.76
2022-10-05T23:08:33.266Z,6.97
2022-10-05T23:11:02.917Z,6.68
2022-10-05T23:13:32.995Z,6.65
2022-10-05T23:16:06.911Z,6.78
2022-10-05T23:18:35.343Z,6.66
2022-10-05T23:21:03.367Z,6.78
2022-10-05T23:23:31.346Z,6.78
2022-10-05T23:26:02.690Z,6.71
2022-10-05T23:28:32.637Z,6.72
2022-10-05T23:31:01.553Z,6.60
2022-10-05T23:33:29.588Z,6.47
2022-10-05T23:36:01.021Z,6.64
2022-10-05T23:38:29.982Z,6.61
2022-10-05T23:40:59.867Z,6.66
2022-10-05T23:43:28.292Z,6.65
2022-10-05T23:45:58.122Z,6.59
2022-10-05T23:48:26.717Z,6.41
2022-10-05T23:50:55.742Z,6.48
2022-10-05T23:53:23.940Z,6.36
2022-10-05T23:55:52.166Z,6.37
2022-10-05T23:58:20.578Z,6.48
